Air Navigation Services of Czech Republic
Airport: LKPR Updated:  21.11.2019 18:30:25  UTC
 METAR LKPR 21.11. 18:30 ...
METAR LKPR 211830Z 16007KT 9999 -RA FEW008 SCT018 OVC028 08/07 Q1008 NOSIG RMK REG QNH 1006=
 TAF LKPR 21.11. 17:00 ...
TAF LKPR 211700Z 2118/2300 20008KT 5000 BR SCT005 OVC016      TEMPO 2118/2202 2500 BR BKN005 OVC013      BECMG 2123/2201 VRB02KT      BECMG 2202/2204 1200 BR BKN003      PROB30 TEMPO 2204/2208 0600 FG BKN001      BECMG 2208/2211 14004KT 5000 BR SCT005 BKN020=